Terminal Aerodrome Forecast
Issued by NWS

Home | Current Version | Previous Version | Graphics & Text | Print | Product List | Glossary On
Versions: 1 2 3 4 5 6 7 8 9 10 11 12 13 14 15 16 17 18 19 20 21 22 23 24
016
FTUS43 KLSX 191732
TAFSUS
TAF
KSUS 191732Z 1918/2018 VRB03KT 5SM -RA BR OVC008
     FM192300 VRB03KT 2SM BR VCSH OVC003
     FM200500 00000KT 1SM -DZ BR OVC003
     FM201000 VRB03KT 1/2SM FG OVC003
     FM201600 16004KT 2SM BR OVC003=

USA.gov is the U.S. government's official web portal to all federal, state and local government web resources and services.